createdAt,value
2022-12-01T00:01:48.022Z,102454.81
2022-12-01T00:04:52.100Z,102450.19
2022-12-01T00:07:56.155Z,102448.88
2022-12-01T00:11:04.117Z,102450.88
2022-12-01T00:14:08.501Z,102452.59
2022-12-01T00:17:12.559Z,102457.47
2022-12-01T00:20:18.078Z,102453.00
2022-12-01T00:23:22.013Z,102447.81
2022-12-01T00:26:25.387Z,102454.31
2022-12-01T00:32:51.524Z,102449.44
2022-12-01T00:36:00.861Z,102450.00
2022-12-01T00:39:04.984Z,102447.94
2022-12-01T00:42:13.102Z,102450.31
2022-12-01T00:45:17.533Z,102453.25
2022-12-01T00:48:21.637Z,102456.66
2022-12-01T00:51:25.754Z,102446.25
2022-12-01T00:54:31.621Z,102456.31
2022-12-01T00:57:34.395Z,102456.56
2022-12-01T01:00:39.916Z,102458.59
2022-12-01T01:03:44.002Z,102468.56
2022-12-01T01:06:48.023Z,102463.91
2022-12-01T01:09:50.908Z,102469.91
2022-12-01T01:12:55.042Z,102469.59
2022-12-01T01:15:59.438Z,102473.13
2022-12-01T01:19:04.762Z,102473.13
2022-12-01T01:22:08.757Z,102469.59
2022-12-01T01:25:11.483Z,102468.06
2022-12-01T01:28:15.378Z,102455.63
2022-12-01T01:31:21.444Z,102470.78
2022-12-01T01:34:26.891Z,102465.94
2022-12-01T01:37:29.655Z,102470.69
2022-12-01T01:40:33.607Z,102469.75
2022-12-01T01:43:44.456Z,102458.31
2022-12-01T01:46:47.322Z,102461.63
2022-12-01T01:49:52.877Z,102465.41
2022-12-01T01:53:02.269Z,102468.22
2022-12-01T01:56:08.265Z,102465.72
2022-12-01T01:59:14.287Z,102469.69
2022-12-01T02:02:18.806Z,102465.53
2022-12-01T02:05:27.319Z,102458.06
2022-12-01T02:08:30.796Z,102464.44
2022-12-01T02:12:08.365Z,102457.03
2022-12-01T02:15:21.560Z,102460.72
2022-12-01T02:18:32.430Z,102462.75
2022-12-01T02:21:55.898Z,102454.19
2022-12-01T02:25:20.697Z,102452.50
2022-12-01T02:28:57.151Z,102450.81
2022-12-01T02:32:12.115Z,102450.06
2022-12-01T02:35:22.805Z,102442.00
2022-12-01T02:38:31.995Z,102444.28
2022-12-01T02:41:39.498Z,102442.94
2022-12-01T02:44:47.171Z,102446.03
2022-12-01T02:47:55.072Z,102446.22
2022-12-01T02:51:02.428Z,102435.41
2022-12-01T02:54:07.045Z,102444.47
2022-12-01T02:57:13.957Z,102450.22
2022-12-01T03:00:20.195Z,102442.25
2022-12-01T03:03:58.192Z,102450.38
2022-12-01T03:07:14.003Z,102454.88
2022-12-01T03:13:56.686Z,102443.16
2022-12-01T03:17:04.472Z,102439.06
2022-12-01T03:20:13.838Z,102446.31
2022-12-01T03:23:24.042Z,102446.56
2022-12-01T03:26:31.744Z,102455.91
2022-12-01T03:29:39.939Z,102447.09
2022-12-01T03:32:49.498Z,102444.28
2022-12-01T03:35:57.347Z,102436.09
2022-12-01T03:39:05.994Z,102444.47
2022-12-01T03:42:16.573Z,102452.72
2022-12-01T03:45:25.549Z,102452.03
2022-12-01T03:48:30.622Z,102449.59
2022-12-01T03:51:44.539Z,102456.88
2022-12-01T03:54:53.394Z,102463.13
2022-12-01T03:58:02.663Z,102457.19
2022-12-01T04:01:06.536Z,102460.13
2022-12-01T04:04:12.755Z,102464.06
2022-12-01T04:07:16.783Z,102467.25
2022-12-01T04:10:19.792Z,102470.66
2022-12-01T04:13:23.946Z,102467.69
2022-12-01T04:16:26.768Z,102466.47
2022-12-01T04:19:30.846Z,102467.53
2022-12-01T04:22:35.331Z,102460.91
2022-12-01T04:25:39.292Z,102467.94
2022-12-01T04:28:41.996Z,102471.25
2022-12-01T04:31:45.981Z,102475.03
2022-12-01T04:34:48.750Z,102472.50
2022-12-01T04:37:52.797Z,102473.94
2022-12-01T04:40:55.546Z,102471.25
2022-12-01T04:43:59.885Z,102474.59
2022-12-01T04:47:03.290Z,102476.28
2022-12-01T04:50:07.171Z,102478.22
2022-12-01T04:53:12.522Z,102479.03
2022-12-01T04:56:15.229Z,102489.88
2022-12-01T04:59:19.533Z,102482.75
2022-12-01T05:02:22.283Z,102477.59
2022-12-01T05:05:27.041Z,102480.69
2022-12-01T05:08:31.147Z,102478.38
2022-12-01T05:11:35.868Z,102472.50
2022-12-01T05:14:38.599Z,102480.00
2022-12-01T05:17:42.687Z,102475.53
2022-12-01T05:21:00.467Z,102479.22
2022-12-01T05:24:06.278Z,102479.16
2022-12-01T05:27:08.970Z,102485.25
2022-12-01T05:30:12.841Z,102485.34
2022-12-01T05:33:15.603Z,102488.66
2022-12-01T05:36:18.336Z,102489.75
2022-12-01T05:39:22.414Z,102496.69
2022-12-01T05:42:25.191Z,102489.91
2022-12-01T05:45:28.335Z,102494.53
2022-12-01T05:48:32.331Z,102493.47
2022-12-01T05:51:35.152Z,102502.41
2022-12-01T05:54:40.469Z,102506.66
2022-12-01T05:57:43.243Z,102501.19
2022-12-01T06:00:47.215Z,102500.47
2022-12-01T06:03:50.009Z,102501.25
2022-12-01T06:06:54.201Z,102498.31
2022-12-01T06:09:58.322Z,102504.44
2022-12-01T06:13:01.874Z,102507.13
2022-12-01T06:16:06.959Z,102507.50
2022-12-01T06:19:11.571Z,102504.97
2022-12-01T06:22:14.588Z,102499.56
2022-12-01T06:25:20.138Z,102509.44
2022-12-01T06:28:22.923Z,102510.94
2022-12-01T06:31:26.899Z,102508.75
2022-12-01T06:34:29.601Z,102514.78
2022-12-01T06:37:32.337Z,102513.03
2022-12-01T06:40:36.447Z,102516.78
2022-12-01T06:43:39.419Z,102513.06
2022-12-01T06:46:42.138Z,102524.00
2022-12-01T06:49:44.816Z,102521.03
2022-12-01T06:52:47.817Z,102531.09
2022-12-01T06:55:51.866Z,102528.72
2022-12-01T06:58:55.898Z,102527.31
2022-12-01T07:01:59.045Z,102523.38
2022-12-01T07:05:01.911Z,102534.56
2022-12-01T07:08:06.709Z,102535.72
2022-12-01T07:11:13.330Z,102532.75
2022-12-01T07:17:45.977Z,102532.97
2022-12-01T07:20:49.921Z,102537.44
2022-12-01T07:23:53.854Z,102539.06
2022-12-01T07:26:57.946Z,102538.75
2022-12-01T07:30:01.931Z,102536.03
2022-12-01T07:33:04.630Z,102542.59
2022-12-01T07:36:09.760Z,102533.81
2022-12-01T07:39:13.904Z,102534.50
2022-12-01T07:42:18.656Z,102534.34
2022-12-01T07:45:21.402Z,102542.06
2022-12-01T07:48:24.095Z,102545.94
2022-12-01T07:51:28.961Z,102544.78
2022-12-01T07:54:31.670Z,102546.09
2022-12-01T07:57:37.014Z,102550.50
2022-12-01T08:00:39.738Z,102552.59
2022-12-01T08:03:44.099Z,102545.53
2022-12-01T08:06:48.108Z,102545.63
2022-12-01T08:09:51.175Z,102548.81
2022-12-01T08:12:56.665Z,102555.44
2022-12-01T08:15:59.609Z,102557.00
2022-12-01T08:19:03.765Z,102567.50
2022-12-01T08:22:06.461Z,102566.59
2022-12-01T08:25:09.730Z,102559.53
2022-12-01T08:28:15.125Z,102558.63
2022-12-01T08:31:20.060Z,102552.91
2022-12-01T08:34:24.093Z,102559.16
2022-12-01T08:37:26.818Z,102574.53
2022-12-01T08:40:29.589Z,102561.09
2022-12-01T08:46:57.045Z,102563.34
2022-12-01T08:50:01.104Z,102560.25
2022-12-01T08:53:03.781Z,102564.03
2022-12-01T08:56:10.481Z,102567.19
2022-12-01T08:59:14.732Z,102554.88
2022-12-01T09:02:19.511Z,102562.88
2022-12-01T09:05:22.270Z,102569.75
2022-12-01T09:08:36.169Z,102576.63
2022-12-01T09:11:39.026Z,102586.84
2022-12-01T09:14:49.088Z,102578.06
2022-12-01T09:17:51.808Z,102578.41
2022-12-01T09:20:56.781Z,102577.16
2022-12-01T09:23:59.871Z,102580.34
2022-12-01T09:27:04.654Z,102569.75
2022-12-01T09:30:10.078Z,102568.03
2022-12-01T09:33:14.227Z,102568.56
2022-12-01T09:36:16.880Z,102568.44
2022-12-01T09:39:21.675Z,102574.22
2022-12-01T09:42:35.082Z,102561.91
2022-12-01T09:45:44.143Z,102563.69
2022-12-01T09:48:50.687Z,102568.44
2022-12-01T09:51:54.971Z,102566.56
2022-12-01T09:55:01.459Z,102563.47
2022-12-01T09:58:05.875Z,102561.47
2022-12-01T10:01:17.380Z,102554.66
2022-12-01T10:04:24.349Z,102551.63
2022-12-01T10:07:31.083Z,102557.22
2022-12-01T10:10:39.464Z,102551.44
2022-12-01T10:13:43.836Z,102552.38
2022-12-01T10:16:56.729Z,102543.94
2022-12-01T10:23:44.542Z,102547.25
2022-12-01T10:26:54.118Z,102534.56
2022-12-01T10:30:03.970Z,102538.94
2022-12-01T10:33:18.336Z,102538.28
2022-12-01T10:36:22.795Z,102537.91
2022-12-01T10:39:32.532Z,102543.06
2022-12-01T10:42:40.131Z,102535.56
2022-12-01T10:45:45.457Z,102534.84
2022-12-01T10:48:57.136Z,102531.34
2022-12-01T10:51:59.839Z,102543.22
2022-12-01T10:55:03.199Z,102534.47
2022-12-01T10:58:14.815Z,102543.19
2022-12-01T11:04:52.421Z,102532.38
2022-12-01T11:07:55.992Z,102531.59
2022-12-01T11:11:00.064Z,102525.25
2022-12-01T11:14:05.159Z,102532.78
2022-12-01T11:17:31.132Z,102524.72
2022-12-01T11:20:38.666Z,102527.16
2022-12-01T11:23:46.940Z,102522.47
2022-12-01T11:26:50.965Z,102522.63
2022-12-01T11:29:57.008Z,102516.03
2022-12-01T11:33:01.524Z,102514.00
2022-12-01T11:36:08.704Z,102516.72
2022-12-01T11:39:25.774Z,102512.47
2022-12-01T11:42:34.261Z,102507.25
2022-12-01T11:45:40.576Z,102518.06
2022-12-01T11:49:00.061Z,102508.03
2022-12-01T11:52:18.362Z,102520.09
2022-12-01T11:55:23.053Z,102518.00
2022-12-01T11:58:25.805Z,102512.75
2022-12-01T12:01:41.524Z,102520.16
2022-12-01T12:05:18.112Z,102520.28
2022-12-01T12:08:37.554Z,102527.13
2022-12-01T12:11:49.043Z,102520.03
2022-12-01T12:15:03.171Z,102517.28
2022-12-01T12:18:32.453Z,102513.75
2022-12-01T12:21:40.201Z,102509.34
2022-12-01T12:24:57.447Z,102505.53
2022-12-01T12:28:16.056Z,102509.16
2022-12-01T12:31:29.047Z,102505.63
2022-12-01T12:34:47.381Z,102502.75
2022-12-01T12:37:59.868Z,102505.75
2022-12-01T12:41:15.529Z,102512.22
2022-12-01T12:44:40.294Z,102510.63
2022-12-01T12:48:04.619Z,102511.50
2022-12-01T12:51:14.119Z,102502.75
2022-12-01T12:54:25.014Z,102509.47
2022-12-01T12:57:42.161Z,102509.19
2022-12-01T13:00:51.485Z,102506.53
2022-12-01T13:03:59.934Z,102507.25
2022-12-01T13:07:07.927Z,102505.06
2022-12-01T13:10:24.230Z,102493.50
2022-12-01T13:13:34.706Z,102499.47
2022-12-01T13:16:42.424Z,102496.25
2022-12-01T13:19:48.285Z,102502.84
2022-12-01T13:22:53.251Z,102504.75
2022-12-01T13:26:01.503Z,102505.63
2022-12-01T13:29:08.366Z,102493.28
2022-12-01T13:32:28.150Z,102500.22
2022-12-01T13:35:33.043Z,102495.56
2022-12-01T13:38:36.026Z,102500.13
2022-12-01T13:41:41.793Z,102498.28
2022-12-01T13:44:52.922Z,102504.44
2022-12-01T13:47:56.942Z,102497.63
2022-12-01T13:51:03.077Z,102499.03
2022-12-01T13:54:27.014Z,102506.47
2022-12-01T13:57:33.608Z,102492.06
2022-12-01T14:00:36.734Z,102497.59
2022-12-01T14:03:43.105Z,102486.22
2022-12-01T14:06:50.336Z,102484.56
2022-12-01T14:09:55.477Z,102485.69
2022-12-01T14:13:04.449Z,102481.84
2022-12-01T14:16:07.622Z,102482.44
2022-12-01T14:19:30.586Z,102486.00
2022-12-01T14:22:36.527Z,102485.38
2022-12-01T14:25:40.761Z,102484.06
2022-12-01T14:29:20.114Z,102491.84
2022-12-01T14:32:25.145Z,102483.94
2022-12-01T14:35:28.000Z,102486.00
2022-12-01T14:38:32.014Z,102475.19
2022-12-01T14:41:42.875Z,102486.38
2022-12-01T14:44:50.862Z,102485.91
2022-12-01T14:51:32.987Z,102490.56
2022-12-01T14:54:43.878Z,102495.22
2022-12-01T14:57:50.484Z,102487.19
2022-12-01T15:01:15.857Z,102481.44
2022-12-01T15:04:21.626Z,102485.56
2022-12-01T15:07:24.485Z,102484.84
2022-12-01T15:10:34.538Z,102478.97
2022-12-01T15:13:48.190Z,102483.94
2022-12-01T15:16:53.386Z,102481.00
2022-12-01T15:19:57.834Z,102490.06
2022-12-01T15:23:03.152Z,102485.09
2022-12-01T15:26:07.335Z,102484.97
2022-12-01T15:29:17.329Z,102481.44
2022-12-01T15:32:22.704Z,102482.94
2022-12-01T15:35:27.460Z,102479.53
2022-12-01T15:38:34.129Z,102488.66
2022-12-01T15:41:41.500Z,102487.28
2022-12-01T15:44:45.265Z,102481.19
2022-12-01T15:47:49.948Z,102481.41
2022-12-01T15:51:07.027Z,102479.53
2022-12-01T15:54:20.501Z,102480.25
2022-12-01T15:57:23.491Z,102480.31
2022-12-01T16:00:26.477Z,102475.75
2022-12-01T16:03:30.886Z,102472.53
2022-12-01T16:06:39.142Z,102475.59
2022-12-01T16:09:44.619Z,102474.75
2022-12-01T16:12:47.445Z,102478.09
2022-12-01T16:15:50.139Z,102483.19
2022-12-01T16:18:56.776Z,102474.81
2022-12-01T16:22:05.750Z,102475.84
2022-12-01T16:25:18.998Z,102469.81
2022-12-01T16:28:23.909Z,102483.19
2022-12-01T16:34:50.981Z,102478.72
2022-12-01T16:37:55.983Z,102482.13
2022-12-01T16:41:02.519Z,102472.97
2022-12-01T16:44:27.447Z,102480.38
2022-12-01T16:47:32.203Z,102487.94
2022-12-01T16:50:36.287Z,102474.88
2022-12-01T16:53:40.493Z,102480.81
2022-12-01T16:56:44.425Z,102481.84
2022-12-01T16:59:47.107Z,102487.72
2022-12-01T17:02:49.947Z,102482.31
2022-12-01T17:05:53.776Z,102482.16
2022-12-01T17:08:57.919Z,102484.16
2022-12-01T17:12:01.253Z,102484.09
2022-12-01T17:15:04.125Z,102481.91
2022-12-01T17:18:08.206Z,102483.41
2022-12-01T17:21:12.022Z,102479.84
2022-12-01T17:24:19.043Z,102473.97
2022-12-01T17:27:22.189Z,102481.38
2022-12-01T17:30:26.971Z,102481.63
2022-12-01T17:33:30.999Z,102480.63
2022-12-01T17:36:33.794Z,102482.63
2022-12-01T17:42:59.876Z,102487.50
2022-12-01T17:46:03.225Z,102478.59
2022-12-01T17:49:10.508Z,102487.13
2022-12-01T17:52:13.232Z,102486.78
2022-12-01T17:55:18.749Z,102479.84
2022-12-01T17:58:21.631Z,102477.69
2022-12-01T18:01:30.152Z,102471.19
2022-12-01T18:04:35.217Z,102472.25
2022-12-01T18:07:38.607Z,102475.13
2022-12-01T18:10:43.994Z,102480.38
2022-12-01T18:13:53.419Z,102484.63
2022-12-01T18:16:56.208Z,102484.34
2022-12-01T18:19:58.916Z,102488.66
2022-12-01T18:23:01.629Z,102475.81
2022-12-01T18:26:13.714Z,102473.19
2022-12-01T18:29:25.716Z,102477.44
2022-12-01T18:32:29.736Z,102482.16
2022-12-01T18:35:32.478Z,102478.13
2022-12-01T18:38:36.504Z,102480.66
2022-12-01T18:41:40.973Z,102479.38
2022-12-01T18:44:43.710Z,102476.34
2022-12-01T18:47:46.488Z,102475.25
2022-12-01T18:50:54.967Z,102462.56
2022-12-01T18:54:04.502Z,102466.94
2022-12-01T18:57:08.631Z,102476.06
2022-12-01T19:00:12.874Z,102469.63
2022-12-01T19:03:15.857Z,102471.09
2022-12-01T19:06:20.917Z,102473.44
2022-12-01T19:09:23.643Z,102471.03
2022-12-01T19:12:27.807Z,102470.09
2022-12-01T19:15:31.773Z,102470.41
2022-12-01T19:18:34.513Z,102466.25
2022-12-01T19:21:38.962Z,102472.72
2022-12-01T19:24:44.840Z,102465.16
2022-12-01T19:27:53.173Z,102466.00
2022-12-01T19:34:17.639Z,102473.41
2022-12-01T19:37:20.925Z,102477.97
2022-12-01T19:40:23.756Z,102482.22
2022-12-01T19:43:28.200Z,102478.34
2022-12-01T19:46:30.998Z,102483.09
2022-12-01T19:49:34.972Z,102477.19
2022-12-01T19:52:38.880Z,102476.09
2022-12-01T19:55:41.619Z,102479.03
2022-12-01T19:58:45.789Z,102480.38
2022-12-01T20:01:49.992Z,102487.16
2022-12-01T20:04:52.931Z,102487.94
2022-12-01T20:07:55.941Z,102497.47
2022-12-01T20:11:00.083Z,102491.66
2022-12-01T20:14:05.721Z,102484.78
2022-12-01T20:17:12.896Z,102498.59
2022-12-01T20:20:18.414Z,102486.94
2022-12-01T20:23:21.184Z,102491.81
2022-12-01T20:26:30.211Z,102482.16
2022-12-01T20:29:34.781Z,102479.28
2022-12-01T20:32:38.788Z,102486.25
2022-12-01T20:35:41.472Z,102492.66
2022-12-01T20:38:45.555Z,102488.94
2022-12-01T20:41:48.427Z,102492.22
2022-12-01T20:44:53.784Z,102486.56
2022-12-01T20:47:56.519Z,102480.38
2022-12-01T20:51:02.480Z,102475.31
2022-12-01T20:57:29.994Z,102481.16
2022-12-01T21:00:35.364Z,102473.03
2022-12-01T21:03:39.415Z,102480.06
2022-12-01T21:06:43.423Z,102480.53
2022-12-01T21:09:46.321Z,102475.22
2022-12-01T21:16:36.200Z,102476.66
2022-12-01T21:19:46.319Z,102472.06
2022-12-01T21:22:52.409Z,102471.50
2022-12-01T21:25:56.496Z,102475.59
2022-12-01T21:29:02.157Z,102472.41
2022-12-01T21:32:14.580Z,102474.13
2022-12-01T21:35:21.576Z,102471.94
2022-12-01T21:38:25.646Z,102478.06
2022-12-01T21:41:31.688Z,102472.66
2022-12-01T21:44:39.399Z,102471.16
2022-12-01T21:47:43.664Z,102464.66
2022-12-01T21:50:52.423Z,102463.97
2022-12-01T21:53:57.567Z,102458.28
2022-12-01T21:57:01.631Z,102460.66
2022-12-01T22:00:28.837Z,102459.19
2022-12-01T22:03:34.668Z,102460.19
2022-12-01T22:06:40.612Z,102460.66
2022-12-01T22:09:43.328Z,102456.56
2022-12-01T22:12:46.165Z,102453.72
2022-12-01T22:15:48.959Z,102451.91
2022-12-01T22:22:23.975Z,102444.63
2022-12-01T22:25:28.352Z,102447.66
2022-12-01T22:28:32.388Z,102455.63
2022-12-01T22:31:35.383Z,102445.31
2022-12-01T22:34:40.040Z,102443.84
2022-12-01T22:37:47.290Z,102450.59
2022-12-01T22:40:58.369Z,102444.19
2022-12-01T22:44:02.750Z,102452.75
2022-12-01T22:47:05.895Z,102446.50
2022-12-01T22:50:27.349Z,102442.47
2022-12-01T22:53:31.972Z,102445.97
2022-12-01T22:56:40.234Z,102442.31
2022-12-01T22:59:46.222Z,102426.50
2022-12-01T23:02:50.951Z,102438.22
2022-12-01T23:05:59.207Z,102430.16
2022-12-01T23:09:02.923Z,102432.81
2022-12-01T23:12:22.489Z,102423.66
2022-12-01T23:15:32.216Z,102425.25
2022-12-01T23:18:34.940Z,102419.13
2022-12-01T23:21:40.268Z,102423.78
2022-12-01T23:24:43.517Z,102414.44
2022-12-01T23:27:49.681Z,102413.16
2022-12-01T23:30:56.765Z,102414.03
2022-12-01T23:33:59.596Z,102407.41
2022-12-01T23:37:03.803Z,102408.78
2022-12-01T23:40:17.086Z,102410.31
2022-12-01T23:43:23.736Z,102410.09
2022-12-01T23:46:29.374Z,102403.16
2022-12-01T23:49:36.223Z,102396.94
2022-12-01T23:52:41.599Z,102401.31
2022-12-01T23:55:44.337Z,102395.88
2022-12-01T23:58:47.708Z,102403.16
